sensor_id;sensor_type;location;lat;lon;timestamp;pressure;altitude;pressure_sealevel;temperature;humidity
71964;BME280;59834;52.124;5.422;2023-02-15T00:04:57;103025.66;;;0.98;100.00
71964;BME280;59834;52.124;5.422;2023-02-15T00:07:48;103017.72;;;0.82;99.71
71964;BME280;59834;52.124;5.422;2023-02-15T00:10:20;103018.47;;;0.74;99.34
71964;BME280;59834;52.124;5.422;2023-02-15T00:17:10;103010.53;;;0.57;99.82
71964;BME280;59834;52.124;5.422;2023-02-15T00:27:56;103011.41;;;0.59;99.71
71964;BME280;59834;52.124;5.422;2023-02-15T00:30:45;103013.13;;;0.60;99.54
71964;BME280;59834;52.124;5.422;2023-02-15T00:33:15;103007.06;;;0.56;100.00
71964;BME280;59834;52.124;5.422;2023-02-15T00:36:21;103011.34;;;0.53;100.00
71964;BME280;59834;52.124;5.422;2023-02-15T00:42:46;102999.25;;;0.49;99.89
71964;BME280;59834;52.124;5.422;2023-02-15T00:45:20;102998.50;;;0.56;100.00
71964;BME280;59834;52.124;5.422;2023-02-15T01:02:50;102992.03;;;0.23;100.00
71964;BME280;59834;52.124;5.422;2023-02-15T01:05:16;102992.09;;;0.26;100.00
71964;BME280;59834;52.124;5.422;2023-02-15T01:07:43;102988.69;;;0.27;100.00
71964;BME280;59834;52.124;5.422;2023-02-15T01:10:10;102984.41;;;0.28;100.00
71964;BME280;59834;52.124;5.422;2023-02-15T01:12:36;102982.69;;;0.28;100.00
71964;BME280;59834;52.124;5.422;2023-02-15T01:15:03;102984.44;;;0.32;100.00
71964;BME280;59834;52.124;5.422;2023-02-15T01:17:30;102984.47;;;0.34;100.00
71964;BME280;59834;52.124;5.422;2023-02-15T01:19:57;102982.72;;;0.31;100.00
71964;BME280;59834;52.124;5.422;2023-02-15T01:22:23;102987.00;;;0.31;100.00
71964;BME280;59834;52.124;5.422;2023-02-15T01:24:50;102975.84;;;0.33;100.00
71964;BME280;59834;52.124;5.422;2023-02-15T01:27:17;102974.13;;;0.31;100.00
71964;BME280;59834;52.124;5.422;2023-02-15T01:29:43;102964.69;;;0.31;100.00
71964;BME280;59834;52.124;5.422;2023-02-15T01:32:10;102962.94;;;0.30;100.00
71964;BME280;59834;52.124;5.422;2023-02-15T01:34:37;102956.06;;;0.29;100.00
71964;BME280;59834;52.124;5.422;2023-02-15T01:37:03;102961.22;;;0.29;100.00
71964;BME280;59834;52.124;5.422;2023-02-15T01:39:29;102950.03;;;0.27;100.00
71964;BME280;59834;52.124;5.422;2023-02-15T01:41:56;102953.41;;;0.23;100.00
71964;BME280;59834;52.124;5.422;2023-02-15T01:44:48;102958.50;;;0.20;100.00
71964;BME280;59834;52.124;5.422;2023-02-15T01:47:41;102952.44;;;0.15;100.00
71964;BME280;59834;52.124;5.422;2023-02-15T01:50:40;102942.09;;;0.10;100.00
71964;BME280;59834;52.124;5.422;2023-02-15T01:55:55;102942.78;;;-0.02;100.00
71964;BME280;59834;52.124;5.422;2023-02-15T01:58:25;102948.63;;;-0.13;100.00
71964;BME280;59834;52.124;5.422;2023-02-15T02:00:53;102946.91;;;-0.13;100.00
71964;BME280;59834;52.124;5.422;2023-02-15T02:03:35;102942.69;;;-0.09;100.00
71964;BME280;59834;52.124;5.422;2023-02-15T02:06:04;102942.59;;;-0.14;100.00
71964;BME280;59834;52.124;5.422;2023-02-15T02:08:31;102943.41;;;-0.18;100.00
71964;BME280;59834;52.124;5.422;2023-02-15T02:10:58;102942.53;;;-0.20;100.00
71964;BME280;59834;52.124;5.422;2023-02-15T02:13:24;102938.09;;;-0.27;100.00
71964;BME280;59834;52.124;5.422;2023-02-15T02:16:01;102938.16;;;-0.24;100.00
71964;BME280;59834;52.124;5.422;2023-02-15T02:21:33;102930.38;;;-0.30;100.00
71964;BME280;59834;52.124;5.422;2023-02-15T02:43:54;102901.50;;;-0.65;100.00
71964;BME280;59834;52.124;5.422;2023-02-15T02:49:14;102892.88;;;-0.67;100.00
71964;BME280;59834;52.124;5.422;2023-02-15T02:51:41;102889.44;;;-0.68;100.00
71964;BME280;59834;52.124;5.422;2023-02-15T02:54:07;102891.22;;;-0.67;100.00
71964;BME280;59834;52.124;5.422;2023-02-15T02:56:38;102888.66;;;-0.64;100.00
71964;BME280;59834;52.124;5.422;2023-02-15T02:59:24;102881.00;;;-0.61;100.00
71964;BME280;59834;52.124;5.422;2023-02-15T03:04:32;102879.09;;;-0.73;100.00
71964;BME280;59834;52.124;5.422;2023-02-15T03:07:05;102885.97;;;-0.73;100.00
71964;BME280;59834;52.124;5.422;2023-02-15T03:09:38;102884.19;;;-0.74;100.00
71964;BME280;59834;52.124;5.422;2023-02-15T03:12:14;102878.19;;;-0.75;100.00
71964;BME280;59834;52.124;5.422;2023-02-15T03:14:44;102878.19;;;-0.76;100.00
71964;BME280;59834;52.124;5.422;2023-02-15T03:17:14;102870.44;;;-0.78;100.00
71964;BME280;59834;52.124;5.422;2023-02-15T03:19:43;102865.34;;;-0.76;100.00
71964;BME280;59834;52.124;5.422;2023-02-15T03:22:19;102857.63;;;-0.75;100.00
71964;BME280;59834;52.124;5.422;2023-02-15T03:27:34;102858.50;;;-0.74;100.00
71964;BME280;59834;52.124;5.422;2023-02-15T03:30:04;102851.63;;;-0.75;100.00
71964;BME280;59834;52.124;5.422;2023-02-15T03:32:33;102855.91;;;-0.74;100.00
71964;BME280;59834;52.124;5.422;2023-02-15T03:35:00;102859.38;;;-0.74;100.00
71964;BME280;59834;52.124;5.422;2023-02-15T03:37:36;102852.59;;;-0.70;100.00
71964;BME280;59834;52.124;5.422;2023-02-15T03:40:26;102852.59;;;-0.70;100.00
71964;BME280;59834;52.124;5.422;2023-02-15T03:43:18;102855.06;;;-0.75;100.00
71964;BME280;59834;52.124;5.422;2023-02-15T03:45:49;102852.44;;;-0.79;100.00
71964;BME280;59834;52.124;5.422;2023-02-15T03:48:37;102850.75;;;-0.76;100.00
71964;BME280;59834;52.124;5.422;2023-02-15T03:51:09;102849.09;;;-0.74;100.00
71964;BME280;59834;52.124;5.422;2023-02-15T03:53:55;102840.44;;;-0.77;100.00
71964;BME280;59834;52.124;5.422;2023-02-15T03:56:24;102843.91;;;-0.77;100.00
71964;BME280;59834;52.124;5.422;2023-02-15T03:58:50;102851.63;;;-0.77;100.00
71964;BME280;59834;52.124;5.422;2023-02-15T04:01:44;102840.44;;;-0.77;100.00
71964;BME280;59834;52.124;5.422;2023-02-15T04:04:33;102839.56;;;-0.78;100.00
71964;BME280;59834;52.124;5.422;2023-02-15T04:07:00;102838.72;;;-0.80;100.00
71964;BME280;59834;52.124;5.422;2023-02-15T04:09:27;102839.50;;;-0.84;100.00
71964;BME280;59834;52.124;5.422;2023-02-15T04:12:12;102836.84;;;-0.88;100.00
71964;BME280;59834;52.124;5.422;2023-02-15T04:14:38;102833.38;;;-0.92;100.00
71964;BME280;59834;52.124;5.422;2023-02-15T04:17:23;102834.31;;;-0.85;100.00
71964;BME280;59834;52.124;5.422;2023-02-15T04:19:50;102836.03;;;-0.84;100.00
71964;BME280;59834;52.124;5.422;2023-02-15T04:22:35;102827.53;;;-0.83;100.00
71964;BME280;59834;52.124;5.422;2023-02-15T04:25:20;102832.59;;;-0.86;100.00
71964;BME280;59834;52.124;5.422;2023-02-15T04:27:49;102839.41;;;-0.88;100.00
71964;BME280;59834;52.124;5.422;2023-02-15T04:30:18;102833.38;;;-0.92;100.00
71964;BME280;59834;52.124;5.422;2023-02-15T04:32:45;102839.38;;;-0.91;100.00
71964;BME280;59834;52.124;5.422;2023-02-15T04:35:13;102837.66;;;-0.92;100.00
71964;BME280;59834;52.124;5.422;2023-02-15T04:37:42;102835.06;;;-0.92;100.00
71964;BME280;59834;52.124;5.422;2023-02-15T04:40:11;102827.38;;;-0.92;100.00
71964;BME280;59834;52.124;5.422;2023-02-15T04:42:38;102830.78;;;-0.92;100.00
71964;BME280;59834;52.124;5.422;2023-02-15T04:45:05;102823.88;;;-0.95;100.00
71964;BME280;59834;52.124;5.422;2023-02-15T04:47:32;102819.59;;;-0.97;100.00
71964;BME280;59834;52.124;5.422;2023-02-15T04:49:58;102818.66;;;-1.01;100.00
71964;BME280;59834;52.124;5.422;2023-02-15T04:52:25;102814.34;;;-1.03;100.00
71964;BME280;59834;52.124;5.422;2023-02-15T04:54:51;102808.31;;;-1.05;100.00
71964;BME280;59834;52.124;5.422;2023-02-15T04:57:18;102810.81;;;-1.10;100.00
71964;BME280;59834;52.124;5.422;2023-02-15T04:59:44;102802.13;;;-1.16;100.00
71964;BME280;59834;52.124;5.422;2023-02-15T05:02:11;102806.34;;;-1.20;100.00
71964;BME280;59834;52.124;5.422;2023-02-15T05:04:37;102809.69;;;-1.24;100.00
71964;BME280;59834;52.124;5.422;2023-02-15T05:07:04;102808.78;;;-1.28;100.00
71964;BME280;59834;52.124;5.422;2023-02-15T05:09:30;102810.53;;;-1.27;100.00
71964;BME280;59834;52.124;5.422;2023-02-15T05:11:57;102805.38;;;-1.27;100.00
71964;BME280;59834;52.124;5.422;2023-02-15T05:14:24;102797.75;;;-1.22;100.00
71964;BME280;59834;52.124;5.422;2023-02-15T05:16:50;102803.72;;;-1.23;100.00
71964;BME280;59834;52.124;5.422;2023-02-15T05:19:17;102800.25;;;-1.25;100.00
71964;BME280;59834;52.124;5.422;2023-02-15T05:21:43;102797.69;;;-1.25;100.00
71964;BME280;59834;52.124;5.422;2023-02-15T05:24:10;102796.09;;;-1.20;100.00
71964;BME280;59834;52.124;5.422;2023-02-15T05:26:55;102789.97;;;-1.25;100.00
71964;BME280;59834;52.124;5.422;2023-02-15T05:29:40;102788.28;;;-1.25;100.00
71964;BME280;59834;52.124;5.422;2023-02-15T05:32:07;102790.09;;;-1.21;100.00
71964;BME280;59834;52.124;5.422;2023-02-15T05:34:34;102799.47;;;-1.21;100.00
71964;BME280;59834;52.124;5.422;2023-02-15T05:37:00;102792.66;;;-1.21;100.00
71964;BME280;59834;52.124;5.422;2023-02-15T05:39:27;102797.75;;;-1.22;100.00
71964;BME280;59834;52.124;5.422;2023-02-15T05:41:53;102800.31;;;-1.24;100.00
71964;BME280;59834;52.124;5.422;2023-02-15T05:44:20;102799.34;;;-1.30;100.00
71964;BME280;59834;52.124;5.422;2023-02-15T05:46:47;102802.72;;;-1.31;100.00
71964;BME280;59834;52.124;5.422;2023-02-15T05:49:13;102799.28;;;-1.33;100.00
71964;BME280;59834;52.124;5.422;2023-02-15T05:51:40;102803.56;;;-1.34;100.00
71964;BME280;59834;52.124;5.422;2023-02-15T05:54:06;102797.53;;;-1.34;100.00
71964;BME280;59834;52.124;5.422;2023-02-15T05:56:33;102798.38;;;-1.35;100.00
71964;BME280;59834;52.124;5.422;2023-02-15T05:58:59;102807.81;;;-1.34;100.00
71964;BME280;59834;52.124;5.422;2023-02-15T06:01:26;102801.81;;;-1.35;100.00
71964;BME280;59834;52.124;5.422;2023-02-15T06:03:52;102792.38;;;-1.34;100.00
71964;BME280;59834;52.124;5.422;2023-02-15T06:06:20;102791.56;;;-1.33;100.00
71964;BME280;59834;52.124;5.422;2023-02-15T06:08:47;102786.41;;;-1.35;100.00
71964;BME280;59834;52.124;5.422;2023-02-15T06:11:13;102793.25;;;-1.35;100.00
71964;BME280;59834;52.124;5.422;2023-02-15T06:13:40;102793.28;;;-1.34;100.00
71964;BME280;59834;52.124;5.422;2023-02-15T06:16:06;102796.66;;;-1.35;100.00
71964;BME280;59834;52.124;5.422;2023-02-15T06:18:33;102794.16;;;-1.33;100.00
71964;BME280;59834;52.124;5.422;2023-02-15T06:21:00;102785.59;;;-1.32;100.00
71964;BME280;59834;52.124;5.422;2023-02-15T06:23:26;102784.69;;;-1.34;100.00
71964;BME280;59834;52.124;5.422;2023-02-15T06:25:53;102787.19;;;-1.39;100.00
71964;BME280;59834;52.124;5.422;2023-02-15T06:28:19;102779.47;;;-1.39;100.00
71964;BME280;59834;52.124;5.422;2023-02-15T06:30:46;102782.03;;;-1.40;100.00
71964;BME280;59834;52.124;5.422;2023-02-15T06:33:13;102787.19;;;-1.40;100.00
71964;BME280;59834;52.124;5.422;2023-02-15T06:35:39;102782.84;;;-1.42;100.00
71964;BME280;59834;52.124;5.422;2023-02-15T06:38:05;102782.03;;;-1.40;100.00
71964;BME280;59834;52.124;5.422;2023-02-15T06:40:32;102784.56;;;-1.42;100.00
71964;BME280;59834;52.124;5.422;2023-02-15T06:42:59;102783.69;;;-1.44;100.00
71964;BME280;59834;52.124;5.422;2023-02-15T06:45:25;102784.63;;;-1.39;100.00
71964;BME280;59834;52.124;5.422;2023-02-15T06:47:51;102789.75;;;-1.39;100.00
71964;BME280;59834;52.124;5.422;2023-02-15T06:50:18;102778.63;;;-1.39;100.00
71964;BME280;59834;52.124;5.422;2023-02-15T06:52:44;102789.00;;;-1.33;100.00
71964;BME280;59834;52.124;5.422;2023-02-15T06:55:12;102784.72;;;-1.33;100.00
71964;BME280;59834;52.124;5.422;2023-02-15T06:57:38;102777.94;;;-1.31;100.00
71964;BME280;59834;52.124;5.422;2023-02-15T07:00:05;102776.22;;;-1.30;100.00
71964;BME280;59834;52.124;5.422;2023-02-15T07:02:33;102777.94;;;-1.28;100.00
71964;BME280;59834;52.124;5.422;2023-02-15T07:04:59;102780.56;;;-1.25;100.00
71964;BME280;59834;52.124;5.422;2023-02-15T07:07:26;102778.84;;;-1.24;100.00
71964;BME280;59834;52.124;5.422;2023-02-15T07:09:52;102776.34;;;-1.23;100.00
71964;BME280;59834;52.124;5.422;2023-02-15T07:12:19;102778.97;;;-1.18;100.00
71964;BME280;59834;52.124;5.422;2023-02-15T07:15:04;102778.16;;;-1.15;100.00
71964;BME280;59834;52.124;5.422;2023-02-15T07:17:33;102783.34;;;-1.11;100.00
71964;BME280;59834;52.124;5.422;2023-02-15T07:20:10;102784.38;;;-1.03;100.00
71964;BME280;59834;52.124;5.422;2023-02-15T07:22:37;102777.56;;;-0.98;100.00
71964;BME280;59834;52.124;5.422;2023-02-15T07:25:06;102775.09;;;-0.93;100.00
71964;BME280;59834;52.124;5.422;2023-02-15T07:27:33;102778.56;;;-0.89;100.00
71964;BME280;59834;52.124;5.422;2023-02-15T07:30:00;102770.94;;;-0.83;100.00
71964;BME280;59834;52.124;5.422;2023-02-15T07:32:28;102762.47;;;-0.76;100.00
71964;BME280;59834;52.124;5.422;2023-02-15T07:34:56;102755.69;;;-0.71;100.00
71964;BME280;59834;52.124;5.422;2023-02-15T07:37:23;102745.47;;;-0.66;100.00
71964;BME280;59834;52.124;5.422;2023-02-15T07:39:49;102750.66;;;-0.62;100.00
71964;BME280;59834;52.124;5.422;2023-02-15T07:42:15;102747.34;;;-0.55;100.00
71964;BME280;59834;52.124;5.422;2023-02-15T07:44:42;102745.69;;;-0.50;100.00
71964;BME280;59834;52.124;5.422;2023-02-15T07:47:08;102746.59;;;-0.44;100.00
71964;BME280;59834;52.124;5.422;2023-02-15T07:49:35;102749.25;;;-0.38;100.00
71964;BME280;59834;52.124;5.422;2023-02-15T07:52:02;102744.19;;;-0.31;100.00
71964;BME280;59834;52.124;5.422;2023-02-15T07:54:28;102736.56;;;-0.25;100.00
71964;BME280;59834;52.124;5.422;2023-02-15T07:56:54;102740.91;;;-0.19;100.00
71964;BME280;59834;52.124;5.422;2023-02-15T07:59:21;102728.94;;;-0.14;100.00
71964;BME280;59834;52.124;5.422;2023-02-15T08:01:48;102731.59;;;-0.09;100.00
71964;BME280;59834;52.124;5.422;2023-02-15T08:04:14;102734.16;;;-0.08;100.00
71964;BME280;59834;52.124;5.422;2023-02-15T08:06:41;102725.66;;;-0.02;100.00
71964;BME280;59834;52.124;5.422;2023-02-15T08:09:08;102727.41;;;0.02;100.00
71964;BME280;59834;52.124;5.422;2023-02-15T08:11:37;102726.59;;;0.06;100.00
71964;BME280;59834;52.124;5.422;2023-02-15T08:16:39;102714.66;;;0.13;100.00
71964;BME280;59834;52.124;5.422;2023-02-15T08:19:23;102716.44;;;0.18;100.00
71964;BME280;59834;52.124;5.422;2023-02-15T08:21:58;102719.09;;;0.29;100.00
71964;BME280;59834;52.124;5.422;2023-02-15T08:24:27;102717.47;;;0.37;100.00
71964;BME280;59834;52.124;5.422;2023-02-15T08:26:55;102719.25;;;0.46;100.00
71964;BME280;59834;52.124;5.422;2023-02-15T08:29:24;102721.97;;;0.63;100.00
71964;BME280;59834;52.124;5.422;2023-02-15T08:31:57;102719.50;;;0.78;100.00
71964;BME280;59834;52.124;5.422;2023-02-15T08:34:30;102714.41;;;0.90;100.00
71964;BME280;59834;52.124;5.422;2023-02-15T08:36:57;102712.78;;;1.02;100.00
71964;BME280;59834;52.124;5.422;2023-02-15T08:39:24;102710.28;;;1.11;100.00
71964;BME280;59834;52.124;5.422;2023-02-15T08:41:50;102710.34;;;1.22;100.00
71964;BME280;59834;52.124;5.422;2023-02-15T08:44:18;102700.91;;;1.25;100.00
71964;BME280;59834;52.124;5.422;2023-02-15T08:46:46;102707.81;;;1.32;100.00
71964;BME280;59834;52.124;5.422;2023-02-15T08:49:16;102706.97;;;1.38;100.00
71964;BME280;59834;52.124;5.422;2023-02-15T08:51:46;102707.00;;;1.42;100.00
71964;BME280;59834;52.124;5.422;2023-02-15T08:54:15;102696.72;;;1.52;100.00
71964;BME280;59834;52.124;5.422;2023-02-15T08:56:43;102703.63;;;1.59;100.00
71964;BME280;59834;52.124;5.422;2023-02-15T08:59:21;102697.59;;;1.68;100.00
71964;BME280;59834;52.124;5.422;2023-02-15T09:01:50;102700.22;;;1.72;100.00
71964;BME280;59834;52.124;5.422;2023-02-15T09:04:17;102699.38;;;1.76;100.00
71964;BME280;59834;52.124;5.422;2023-02-15T09:06:45;102689.94;;;1.89;100.00
71964;BME280;59834;52.124;5.422;2023-02-15T09:09:15;102693.41;;;2.03;100.00
71964;BME280;59834;52.124;5.422;2023-02-15T09:11:43;102693.41;;;2.14;100.00
71964;BME280;59834;52.124;5.422;2023-02-15T09:14:16;102690.00;;;2.18;100.00
71964;BME280;59834;52.124;5.422;2023-02-15T09:16:45;102684.81;;;2.21;100.00
71964;BME280;59834;52.124;5.422;2023-02-15T09:19:19;102682.22;;;2.24;100.00
71964;BME280;59834;52.124;5.422;2023-02-15T09:21:47;102673.63;;;2.31;100.00
71964;BME280;59834;52.124;5.422;2023-02-15T09:24:15;102669.31;;;2.43;100.00
71964;BME280;59834;52.124;5.422;2023-02-15T09:26:46;102677.09;;;2.55;100.00
71964;BME280;59834;52.124;5.422;2023-02-15T09:29:14;102676.19;;;2.67;100.00
71964;BME280;59834;52.124;5.422;2023-02-15T09:31:46;102665.84;;;2.76;100.00
71964;BME280;59834;52.124;5.422;2023-02-15T09:34:17;102669.25;;;2.87;100.00
71964;BME280;59834;52.124;5.422;2023-02-15T09:36:45;102674.41;;;2.98;100.00
71964;BME280;59834;52.124;5.422;2023-02-15T09:39:14;102680.41;;;3.04;100.00
71964;BME280;59834;52.124;5.422;2023-02-15T09:41:51;102681.28;;;3.16;100.00
71964;BME280;59834;52.124;5.422;2023-02-15T09:55:51;102660.34;;;3.65;99.12
71964;BME280;59834;52.124;5.422;2023-02-15T09:59:48;102654.25;;;3.76;98.48
71964;BME280;59834;52.124;5.422;2023-02-15T10:04:58;102674.88;;;3.90;97.78
71964;BME280;59834;52.124;5.422;2023-02-15T10:10:31;102674.75;;;4.10;96.73
71964;BME280;59834;52.124;5.422;2023-02-15T10:13:22;102678.97;;;4.22;96.53
71964;BME280;59834;52.124;5.422;2023-02-15T10:18:49;102679.69;;;4.41;95.63
71964;BME280;59834;52.124;5.422;2023-02-15T10:24:19;102677.78;;;4.61;94.40
71964;BME280;59834;52.124;5.422;2023-02-15T10:26:49;102672.50;;;4.70;94.26
71964;BME280;59834;52.124;5.422;2023-02-15T10:34:38;102680.00;;;4.98;92.53
71964;BME280;59834;52.124;5.422;2023-02-15T10:40:20;102681.56;;;5.13;91.23
71964;BME280;59834;52.124;5.422;2023-02-15T10:43:23;102675.44;;;5.18;91.03
71964;BME280;59834;52.124;5.422;2023-02-15T10:48:39;102681.25;;;5.39;90.62
71964;BME280;59834;52.124;5.422;2023-02-15T10:51:18;102672.47;;;5.49;90.25
71964;BME280;59834;52.124;5.422;2023-02-15T10:59:38;102665.25;;;5.71;89.25
71964;BME280;59834;52.124;5.422;2023-02-15T11:02:24;102657.31;;;5.82;88.29
71964;BME280;59834;52.124;5.422;2023-02-15T11:05:35;102655.56;;;5.84;88.21
71964;BME280;59834;52.124;5.422;2023-02-15T11:07:52;102649.31;;;5.97;87.26
71964;BME280;59834;52.124;5.422;2023-02-15T11:13:18;102647.22;;;6.19;87.04
71964;BME280;59834;52.124;5.422;2023-02-15T11:15:53;102649.66;;;6.30;86.30
71964;BME280;59834;52.124;5.422;2023-02-15T11:18:28;102646.06;;;6.37;86.18
71964;BME280;59834;52.124;5.422;2023-02-15T11:21:09;102636.34;;;6.48;85.77
71964;BME280;59834;52.124;5.422;2023-02-15T11:23:43;102635.41;;;6.52;85.39
71964;BME280;59834;52.124;5.422;2023-02-15T11:26:38;102632.78;;;6.52;85.00
71964;BME280;59834;52.124;5.422;2023-02-15T11:29:13;102631.00;;;6.56;85.46
71964;BME280;59834;52.124;5.422;2023-02-15T11:31:49;102623.19;;;6.57;85.24
71964;BME280;59834;52.124;5.422;2023-02-15T11:36:54;102618.41;;;6.81;84.94
71964;BME280;59834;52.124;5.422;2023-02-15T11:39:26;102602.50;;;6.95;84.27
71964;BME280;59834;52.124;5.422;2023-02-15T11:42:03;102601.50;;;7.00;84.29
71964;BME280;59834;52.124;5.422;2023-02-15T11:44:37;102593.25;;;7.22;83.75
71964;BME280;59834;52.124;5.422;2023-02-15T11:47:12;102584.25;;;7.37;82.84
71964;BME280;59834;52.124;5.422;2023-02-15T11:49:40;102577.91;;;7.48;82.09
71964;BME280;59834;52.124;5.422;2023-02-15T11:52:11;102575.00;;;7.62;81.77
71964;BME280;59834;52.124;5.422;2023-02-15T11:54:44;102568.03;;;7.63;81.21
71964;BME280;59834;52.124;5.422;2023-02-15T11:57:14;102558.25;;;7.71;80.31
71964;BME280;59834;52.124;5.422;2023-02-15T11:59:47;102552.84;;;7.80;80.90
71964;BME280;59834;52.124;5.422;2023-02-15T12:02:20;102548.25;;;7.90;80.96
71964;BME280;59834;52.124;5.422;2023-02-15T12:05:20;102547.09;;;8.01;81.80
71964;BME280;59834;52.124;5.422;2023-02-15T12:08:02;102547.81;;;8.07;80.62
71964;BME280;59834;52.124;5.422;2023-02-15T12:10:36;102553.88;;;8.09;80.70
71964;BME280;59834;52.124;5.422;2023-02-15T12:13:19;102556.91;;;8.24;79.58
71964;BME280;59834;52.124;5.422;2023-02-15T12:15:48;102556.81;;;8.29;78.72
71964;BME280;59834;52.124;5.422;2023-02-15T12:18:34;102548.84;;;8.35;78.26
71964;BME280;59834;52.124;5.422;2023-02-15T12:21:15;102555.66;;;8.41;78.26
71964;BME280;59834;52.124;5.422;2023-02-15T12:23:52;102551.19;;;8.44;78.22
71964;BME280;59834;52.124;5.422;2023-02-15T12:26:26;102549.44;;;8.45;78.34
71964;BME280;59834;52.124;5.422;2023-02-15T12:28:54;102539.00;;;8.45;79.19
71964;BME280;59834;52.124;5.422;2023-02-15T12:33:56;102533.88;;;8.73;78.52
71964;BME280;59834;52.124;5.422;2023-02-15T12:36:26;102537.03;;;8.84;77.81
71964;BME280;59834;52.124;5.422;2023-02-15T12:41:34;102517.97;;;9.10;76.97
71964;BME280;59834;52.124;5.422;2023-02-15T12:46:31;102529.91;;;9.19;76.65
71964;BME280;59834;52.124;5.422;2023-02-15T12:51:51;102510.94;;;9.40;75.05
71964;BME280;59834;52.124;5.422;2023-02-15T12:54:35;102508.25;;;9.43;75.05
71964;BME280;59834;52.124;5.422;2023-02-15T12:57:32;102501.41;;;9.39;74.72
71964;BME280;59834;52.124;5.422;2023-02-15T13:02:44;102503.66;;;9.22;75.01
71964;BME280;59834;52.124;5.422;2023-02-15T13:05:19;102512.91;;;9.06;75.50
71964;BME280;59834;52.124;5.422;2023-02-15T13:07:53;102519.34;;;8.94;75.81
71964;BME280;59834;52.124;5.422;2023-02-15T13:10:33;102504.59;;;8.91;76.52
71964;BME280;59834;52.124;5.422;2023-02-15T13:13:01;102510.81;;;8.89;76.99
71964;BME280;59834;52.124;5.422;2023-02-15T13:15:38;102495.00;;;8.92;77.12
71964;BME280;59834;52.124;5.422;2023-02-15T13:18:14;102497.41;;;9.00;77.32
71964;BME280;59834;52.124;5.422;2023-02-15T13:20:43;102483.19;;;9.10;77.41
71964;BME280;59834;52.124;5.422;2023-02-15T13:23:28;102480.66;;;9.07;77.57
71964;BME280;59834;52.124;5.422;2023-02-15T13:25:58;102481.47;;;9.09;77.70
71964;BME280;59834;52.124;5.422;2023-02-15T13:28:36;102479.66;;;9.11;77.41
71964;BME280;59834;52.124;5.422;2023-02-15T13:31:03;102488.31;;;9.13;77.34
71964;BME280;59834;52.124;5.422;2023-02-15T13:33:33;102484.78;;;9.14;77.42
71964;BME280;59834;52.124;5.422;2023-02-15T13:36:15;102485.59;;;9.16;78.17
71964;BME280;59834;52.124;5.422;2023-02-15T13:41:48;102478.28;;;9.27;77.10
71964;BME280;59834;52.124;5.422;2023-02-15T13:47:17;102473.75;;;9.32;75.89
71964;BME280;59834;52.124;5.422;2023-02-15T13:50:01;102477.06;;;9.37;76.03
71964;BME280;59834;52.124;5.422;2023-02-15T13:53:07;102477.16;;;9.34;76.17
71964;BME280;59834;52.124;5.422;2023-02-15T13:55:44;102464.00;;;9.37;75.55
71964;BME280;59834;52.124;5.422;2023-02-15T13:58:33;102467.56;;;9.35;75.62
71964;BME280;59834;52.124;5.422;2023-02-15T14:01:11;102474.41;;;9.39;75.54
71964;BME280;59834;52.124;5.422;2023-02-15T14:20:41;102468.97;;;9.45;76.79
71964;BME280;59834;52.124;5.422;2023-02-15T14:26:04;102463.75;;;9.45;75.23
71964;BME280;59834;52.124;5.422;2023-02-15T14:28:49;102463.81;;;9.43;76.03
71964;BME280;59834;52.124;5.422;2023-02-15T14:31:20;102455.03;;;9.46;74.61
71964;BME280;59834;52.124;5.422;2023-02-15T14:33:56;102453.25;;;9.47;75.77
71964;BME280;59834;52.124;5.422;2023-02-15T14:36:24;102456.00;;;9.42;75.70
71964;BME280;59834;52.124;5.422;2023-02-15T14:41:37;102456.88;;;9.42;75.66
71964;BME280;59834;52.124;5.422;2023-02-15T14:44:20;102454.31;;;9.41;75.05
71964;BME280;59834;52.124;5.422;2023-02-15T14:47:04;102447.38;;;9.40;75.27
71964;BME280;59834;52.124;5.422;2023-02-15T14:49:33;102452.63;;;9.38;75.29
71964;BME280;59834;52.124;5.422;2023-02-15T14:52:06;102448.41;;;9.34;75.92
71964;BME280;59834;52.124;5.422;2023-02-15T14:59:36;102452.97;;;9.29;75.57
71964;BME280;59834;52.124;5.422;2023-02-15T15:09:40;102456.50;;;9.27;75.67
71964;BME280;59834;52.124;5.422;2023-02-15T15:15:03;102451.47;;;9.20;76.36
71964;BME280;59834;52.124;5.422;2023-02-15T15:22:35;102457.81;;;9.13;76.54
71964;BME280;59834;52.124;5.422;2023-02-15T15:28:05;102451.06;;;9.06;76.66
71964;BME280;59834;52.124;5.422;2023-02-15T15:41:40;102449.69;;;8.94;76.52
71964;BME280;59834;52.124;5.422;2023-02-15T15:49:59;102451.81;;;8.82;76.39
71964;BME280;59834;52.124;5.422;2023-02-15T15:52:28;102448.41;;;8.80;76.24
71964;BME280;59834;52.124;5.422;2023-02-15T15:54:58;102451.13;;;8.75;76.74
71964;BME280;59834;52.124;5.422;2023-02-15T15:57:32;102456.56;;;8.69;77.11
71964;BME280;59834;52.124;5.422;2023-02-15T16:00:00;102454.91;;;8.65;77.14
71964;BME280;59834;52.124;5.422;2023-02-15T16:02:27;102456.84;;;8.58;77.65
71964;BME280;59834;52.124;5.422;2023-02-15T16:04:54;102450.09;;;8.53;77.56
71964;BME280;59834;52.124;5.422;2023-02-15T16:07:24;102445.94;;;8.45;78.42
71964;BME280;59834;52.124;5.422;2023-02-15T16:10:05;102440.84;;;8.41;78.78
71964;BME280;59834;52.124;5.422;2023-02-15T16:12:35;102444.47;;;8.35;78.38
71964;BME280;59834;52.124;5.422;2023-02-15T16:16:19;102436.84;;;8.27;78.82
71964;BME280;59834;52.124;5.422;2023-02-15T16:18:24;102430.84;;;8.24;79.74
71964;BME280;59834;52.124;5.422;2023-02-15T16:20:54;102433.63;;;8.18;80.23
71964;BME280;59834;52.124;5.422;2023-02-15T16:23:48;102429.41;;;8.14;79.48
71964;BME280;59834;52.124;5.422;2023-02-15T16:29:01;102429.78;;;8.00;81.17
71964;BME280;59834;52.124;5.422;2023-02-15T16:31:28;102436.00;;;7.96;81.36
71964;BME280;59834;52.124;5.422;2023-02-15T16:33:55;102442.09;;;7.95;81.63
71964;BME280;59834;52.124;5.422;2023-02-15T16:36:28;102445.66;;;7.92;81.30
71964;BME280;59834;52.124;5.422;2023-02-15T16:41:22;102439.06;;;7.77;81.82